Idre Storbo, Sweden

12:25 AM CEST on July 30, 2015 (GMT +0200)
Tjonnodden, 2446 Elga, Engedal, Norway | | Change Station
CLOSE
Current Station
Personal Weather Station
Location: Hedmark, HEDMARK
Elevation: 2218 ft
Nearby Weather Stations

Elev 2218 ft 62.16 °N, 11.90 °E | Updated 1 minute ago

Overcast
Overcast
51.3 °F
Feels Like 51.3 °F
N
0.0
Wind Variable Wind from NW
Gusts 0.0 mph

Today
High -- | Low -- °F
--% Chance of Precip.
Yesterday
High -- | Low -- °F
Precip. -- in
4:31 AM 10:01 PM
Waxing Gibbous, 97% visible
Pressure 29.56 in
Visibility 6.2 miles
Clouds Scattered Clouds 1200 ft
Overcast 1600 ft
Dew Point 49 °F
Humidity 93%
Rainfall 0.00 in
Snow Depth Not available.
UV 0.0 out of 12
Pollen Not available.
Air Quality Not available.
Flu Activity Not available.
METAR ENRO 292220Z AUTO 36004KT 9999NDV SCT012/// OVC016/// 10/10 Q1001

More Conditions Fewer Conditions

Pressure 29.56 in
Visibility 6.2 miles
Clouds Scattered Clouds 1200 ft
Overcast 1600 ft
Dew Point 49 °F
Humidity 93%
Rainfall 0.00 in
Snow Depth Not available.
UV 0.0 out of 12
Pollen Not available.
Air Quality Not available.
Flu Activity Not available.
METAR ENRO 292220Z AUTO 36004KT 9999NDV SCT012/// OVC016/// 10/10 Q1001

More Conditions Fewer Conditions

10-Day Weather Forecast

×

Almanac

Astronomy

Jul. 30, 2015 Rise Set
Actual Time
Civil Twilight
Nautical Twilight
Astronomical Twilight
Moon
Length of Visible Light
Length of Day
Tomorrow will be .
, % of the Moon is Illuminated

Today's Extremes

Country Highs Country Lows

Community

WunderPhotos

Upload Photos

1,842,171 photos uploaded!

WunderBlogs® & News

Nearby

Air Quality

  Air Quality AQ Index Pollutant
Not available.

Snow Depth

Station Depth Elevation

Earthquake Activity

City Distance Mag. Time & Date
Minimum magnitude displayed is 2.5.

Coastal Water Temperatures

Place Temperature

Stations

Nearby Weather Stations

Station Location Temp. Windchill Dew Point Humidity Wind Precip. Elev Updated Type